Terminal Aerodrome Forecast
Issued by NWS

Home | Current Version | Previous Version | Graphics & Text | Print | Product List | Glossary On
Versions: 1 2 3 4 5 6 7 8 9 10 11 12 13 14 15 16 17 18 19 20 21 22 23 24 25 26 27 28 29 30 31 32 33 34 35 36
000
FTUS43 KLOT 231100
TAFMDW
TAF
KMDW 231131Z 2312/2412 23012KT P6SM OVC015
      TEMPO 2312/2314 5SM BR
     FM232000 23013KT P6SM SCT020 SCT250
     FM240300 24009KT P6SM SCT060 BKN080
     FM241000 30007KT P6SM BKN020=

USA.gov is the U.S. government's official web portal to all federal, state and local government web resources and services.